Flight Information

DEPARTURE
GRAND CANYON, AZ
Elevation:
6608
Runways:
3/21 - 8999x150 - ASPH-G
ATIS:
124.3
Ground:
121.9
Tower:
CANYON TOWER 119.0
DESTINATION
,
Elevation:
TPA:
1000 (est.)


6465.9 NM77° True-14° Var62° HDG

Flight Plan:
(click to file on line)

1. Type
2. Aircraft Identification
3. Aircraft Type / Special Equipment
4. True Airspeed
kts
5. Departure Airport
(ICAO code)
6. Arriving Airport
(ICAO code)
7. Cruising Altitude
ft
8. Alternate Airport
(ICAO code)
9. Route of Flight
10. Remarks


00:00:00 Departure ATIS: Destination ATIS:

Clearance Limit:
Route:
Altitude: Expect in minutes
Frequency:
Transponder: (7500 Hijack / 7600 Lost Comms / 7700 Emergency)


KGCN 101512Z 21005KT 8SM FEW001 24/04 A3040 RMK AO2 T02440044
Time: 2020-07-10T15:12:00Z
1594394645
Winds: 210 @ 5 kts
Visibility: 8.0 sm
Clouds (AGL): FEW 100
Temperature: 24.4 C
Dew Point: 4.4 C
Pressure: 30.398623 in Hgbr


Notes:

Data extracted from FAA Digital Chart Supplement. Effective: 0901Z Thursday, May 21, 2020 to 0901Z Thursday, Jul 16, 2020
Current ATIS data is provided courtisy of PilotEdge.